sensor_id;sensor_type;location;lat;lon;timestamp;P1;durP1;ratioP1;P2;durP2;ratioP2
11685;SDS011;5899;51.282;6.094;2022-08-30T08:52:35;6.95;;;5.55;;
11685;SDS011;5899;51.282;6.094;2022-08-30T08:55:22;9.93;;;6.20;;
11685;SDS011;5899;51.282;6.094;2022-08-30T08:57:50;8.85;;;5.63;;
11685;SDS011;5899;51.282;6.094;2022-08-30T09:00:16;11.95;;;5.55;;
11685;SDS011;5899;51.282;6.094;2022-08-30T09:02:44;9.32;;;5.35;;
11685;SDS011;5899;51.282;6.094;2022-08-30T09:05:11;9.32;;;4.93;;
11685;SDS011;5899;51.282;6.094;2022-08-30T09:07:41;7.65;;;5.30;;
11685;SDS011;5899;51.282;6.094;2022-08-30T09:10:09;7.05;;;4.85;;
11685;SDS011;5899;51.282;6.094;2022-08-30T09:12:36;6.43;;;5.00;;
11685;SDS011;5899;51.282;6.094;2022-08-30T09:15:08;7.55;;;4.50;;
11685;SDS011;5899;51.282;6.094;2022-08-30T09:17:47;5.22;;;4.25;;
11685;SDS011;5899;51.282;6.094;2022-08-30T09:20:18;8.40;;;4.88;;
11685;SDS011;5899;51.282;6.094;2022-08-30T09:22:58;5.97;;;4.70;;
11685;SDS011;5899;51.282;6.094;2022-08-30T09:25:27;9.25;;;4.88;;
11685;SDS011;5899;51.282;6.094;2022-08-30T09:28:07;5.72;;;4.30;;
11685;SDS011;5899;51.282;6.094;2022-08-30T09:30:35;6.13;;;4.07;;
11685;SDS011;5899;51.282;6.094;2022-08-30T09:33:17;5.95;;;4.32;;
11685;SDS011;5899;51.282;6.094;2022-08-30T09:35:47;7.05;;;4.15;;
11685;SDS011;5899;51.282;6.094;2022-08-30T09:38:21;5.82;;;4.20;;
11685;SDS011;5899;51.282;6.094;2022-08-30T09:40:51;5.30;;;3.90;;
11685;SDS011;5899;51.282;6.094;2022-08-30T09:43:24;4.30;;;3.90;;
11685;SDS011;5899;51.282;6.094;2022-08-30T09:46:06;8.73;;;3.90;;
11685;SDS011;5899;51.282;6.094;2022-08-30T09:48:34;7.15;;;4.05;;
11685;SDS011;5899;51.282;6.094;2022-08-30T09:51:15;6.30;;;3.78;;
11685;SDS011;5899;51.282;6.094;2022-08-30T09:53:47;10.15;;;3.85;;
11685;SDS011;5899;51.282;6.094;2022-08-30T09:56:19;6.55;;;3.95;;
11685;SDS011;5899;51.282;6.094;2022-08-30T09:58:53;8.15;;;4.00;;
11685;SDS011;5899;51.282;6.094;2022-08-30T10:01:26;7.13;;;3.45;;
11685;SDS011;5899;51.282;6.094;2022-08-30T10:03:55;3.65;;;3.35;;
11685;SDS011;5899;51.282;6.094;2022-08-30T10:06:38;6.05;;;3.40;;
11685;SDS011;5899;51.282;6.094;2022-08-30T10:09:15;5.53;;;3.80;;
11685;SDS011;5899;51.282;6.094;2022-08-30T10:11:48;7.07;;;3.72;;
11685;SDS011;5899;51.282;6.094;2022-08-30T10:17:15;6.93;;;3.25;;
11685;SDS011;5899;51.282;6.094;2022-08-30T10:19:54;8.27;;;3.40;;
11685;SDS011;5899;51.282;6.094;2022-08-30T10:22:27;4.47;;;3.28;;
11685;SDS011;5899;51.282;6.094;2022-08-30T10:25:00;5.30;;;3.45;;
11685;SDS011;5899;51.282;6.094;2022-08-30T10:27:33;5.78;;;3.35;;
11685;SDS011;5899;51.282;6.094;2022-08-30T10:30:04;6.57;;;3.28;;
11685;SDS011;5899;51.282;6.094;2022-08-30T10:32:43;7.22;;;3.25;;
11685;SDS011;5899;51.282;6.094;2022-08-30T10:35:19;4.63;;;3.17;;
11685;SDS011;5899;51.282;6.094;2022-08-30T10:37:55;3.17;;;2.85;;
11685;SDS011;5899;51.282;6.094;2022-08-30T10:40:28;6.80;;;3.42;;
11685;SDS011;5899;51.282;6.094;2022-08-30T10:43:14;6.40;;;3.20;;
11685;SDS011;5899;51.282;6.094;2022-08-30T10:45:45;3.80;;;2.88;;
11685;SDS011;5899;51.282;6.094;2022-08-30T10:48:15;6.80;;;3.03;;
11685;SDS011;5899;51.282;6.094;2022-08-30T10:50:44;5.03;;;3.00;;
11685;SDS011;5899;51.282;6.094;2022-08-30T10:53:14;5.22;;;2.60;;
11685;SDS011;5899;51.282;6.094;2022-08-30T10:55:45;5.93;;;3.05;;
11685;SDS011;5899;51.282;6.094;2022-08-30T10:58:21;8.32;;;3.67;;
11685;SDS011;5899;51.282;6.094;2022-08-30T11:00:56;6.18;;;3.10;;
11685;SDS011;5899;51.282;6.094;2022-08-30T11:06:15;5.03;;;3.03;;
11685;SDS011;5899;51.282;6.094;2022-08-30T11:08:54;8.48;;;2.95;;
11685;SDS011;5899;51.282;6.094;2022-08-30T11:11:28;6.55;;;2.95;;
11685;SDS011;5899;51.282;6.094;2022-08-30T11:14:03;5.57;;;3.10;;
11685;SDS011;5899;51.282;6.094;2022-08-30T11:16:41;5.30;;;3.03;;
11685;SDS011;5899;51.282;6.094;2022-08-30T11:19:19;5.00;;;3.10;;
11685;SDS011;5899;51.282;6.094;2022-08-30T11:21:48;4.07;;;2.90;;
11685;SDS011;5899;51.282;6.094;2022-08-30T11:24:23;4.03;;;2.72;;
11685;SDS011;5899;51.282;6.094;2022-08-30T11:27:01;4.88;;;3.05;;
11685;SDS011;5899;51.282;6.094;2022-08-30T11:29:36;5.53;;;2.85;;
11685;SDS011;5899;51.282;6.094;2022-08-30T11:35:00;5.05;;;2.95;;
11685;SDS011;5899;51.282;6.094;2022-08-30T11:37:43;3.65;;;2.65;;
11685;SDS011;5899;51.282;6.094;2022-08-30T11:49:21;4.57;;;2.45;;
11685;SDS011;5899;51.282;6.094;2022-08-30T11:52:05;3.88;;;3.00;;
11685;SDS011;5899;51.282;6.094;2022-08-30T11:57:49;3.95;;;2.95;;
11685;SDS011;5899;51.282;6.094;2022-08-30T12:00:33;7.00;;;2.75;;
11685;SDS011;5899;51.282;6.094;2022-08-30T12:06:04;5.55;;;3.05;;
11685;SDS011;5899;51.282;6.094;2022-08-30T12:08:52;3.35;;;2.70;;
11685;SDS011;5899;51.282;6.094;2022-08-30T12:14:06;5.70;;;2.67;;
11685;SDS011;5899;51.282;6.094;2022-08-30T12:16:34;3.35;;;2.30;;
11685;SDS011;5899;51.282;6.094;2022-08-30T12:19:26;4.10;;;2.72;;
11685;SDS011;5899;51.282;6.094;2022-08-30T12:21:58;4.18;;;2.58;;
11685;SDS011;5899;51.282;6.094;2022-08-30T12:24:41;4.03;;;2.70;;
11685;SDS011;5899;51.282;6.094;2022-08-30T12:27:21;3.95;;;2.78;;
11685;SDS011;5899;51.282;6.094;2022-08-30T12:32:56;4.97;;;2.60;;
11685;SDS011;5899;51.282;6.094;2022-08-30T12:35:25;4.07;;;2.72;;
11685;SDS011;5899;51.282;6.094;2022-08-30T12:37:57;6.53;;;3.17;;
11685;SDS011;5899;51.282;6.094;2022-08-30T12:40:27;5.72;;;2.38;;
11685;SDS011;5899;51.282;6.094;2022-08-30T12:42:56;4.43;;;2.50;;
11685;SDS011;5899;51.282;6.094;2022-08-30T12:45:25;5.03;;;2.80;;
11685;SDS011;5899;51.282;6.094;2022-08-30T12:47:53;4.68;;;2.50;;
11685;SDS011;5899;51.282;6.094;2022-08-30T12:50:23;4.80;;;2.97;;
11685;SDS011;5899;51.282;6.094;2022-08-30T12:52:56;5.20;;;2.60;;
11685;SDS011;5899;51.282;6.094;2022-08-30T12:55:24;5.85;;;2.75;;
11685;SDS011;5899;51.282;6.094;2022-08-30T12:57:55;7.07;;;2.67;;
11685;SDS011;5899;51.282;6.094;2022-08-30T13:00:22;4.90;;;2.97;;
11685;SDS011;5899;51.282;6.094;2022-08-30T13:02:50;4.00;;;2.83;;
11685;SDS011;5899;51.282;6.094;2022-08-30T13:05:31;3.50;;;2.50;;
11685;SDS011;5899;51.282;6.094;2022-08-30T13:08:13;3.42;;;2.80;;
11685;SDS011;5899;51.282;6.094;2022-08-30T13:13:35;3.00;;;2.70;;
11685;SDS011;5899;51.282;6.094;2022-08-30T13:16:11;5.57;;;3.10;;
11685;SDS011;5899;51.282;6.094;2022-08-30T13:18:45;2.90;;;2.53;;
11685;SDS011;5899;51.282;6.094;2022-08-30T13:21:23;4.07;;;2.60;;
11685;SDS011;5899;51.282;6.094;2022-08-30T13:23:54;4.63;;;2.67;;
11685;SDS011;5899;51.282;6.094;2022-08-30T13:26:23;4.20;;;2.60;;
11685;SDS011;5899;51.282;6.094;2022-08-30T13:29:00;3.83;;;2.42;;
11685;SDS011;5899;51.282;6.094;2022-08-30T13:31:28;4.28;;;3.00;;
11685;SDS011;5899;51.282;6.094;2022-08-30T13:33:57;5.03;;;2.67;;
11685;SDS011;5899;51.282;6.094;2022-08-30T13:36:24;6.18;;;2.83;;
11685;SDS011;5899;51.282;6.094;2022-08-30T13:38:58;5.10;;;2.92;;
11685;SDS011;5899;51.282;6.094;2022-08-30T13:41:39;4.70;;;2.33;;
11685;SDS011;5899;51.282;6.094;2022-08-30T13:44:08;5.72;;;2.63;;
11685;SDS011;5899;51.282;6.094;2022-08-30T13:46:44;3.08;;;2.67;;
11685;SDS011;5899;51.282;6.094;2022-08-30T13:49:17;3.70;;;2.55;;
11685;SDS011;5899;51.282;6.094;2022-08-30T13:51:45;3.30;;;2.28;;
11685;SDS011;5899;51.282;6.094;2022-08-30T13:54:24;5.88;;;2.42;;
11685;SDS011;5899;51.282;6.094;2022-08-30T13:57:01;4.13;;;2.70;;
11685;SDS011;5899;51.282;6.094;2022-08-30T13:59:29;6.18;;;2.50;;
11685;SDS011;5899;51.282;6.094;2022-08-30T14:02:08;4.88;;;2.58;;
11685;SDS011;5899;51.282;6.094;2022-08-30T14:04:39;5.13;;;2.20;;
11685;SDS011;5899;51.282;6.094;2022-08-30T14:07:14;4.85;;;2.80;;
11685;SDS011;5899;51.282;6.094;2022-08-30T14:09:46;5.68;;;3.00;;
11685;SDS011;5899;51.282;6.094;2022-08-30T14:12:20;8.43;;;2.47;;
11685;SDS011;5899;51.282;6.094;2022-08-30T14:14:49;7.40;;;2.90;;
11685;SDS011;5899;51.282;6.094;2022-08-30T14:17:18;5.03;;;2.78;;
11685;SDS011;5899;51.282;6.094;2022-08-30T14:19:56;4.65;;;2.38;;
11685;SDS011;5899;51.282;6.094;2022-08-30T14:22:30;4.22;;;2.60;;
11685;SDS011;5899;51.282;6.094;2022-08-30T14:25:03;2.60;;;2.40;;
11685;SDS011;5899;51.282;6.094;2022-08-30T14:27:33;5.13;;;2.55;;
11685;SDS011;5899;51.282;6.094;2022-08-30T14:30:01;4.00;;;2.63;;
11685;SDS011;5899;51.282;6.094;2022-08-30T14:32:29;6.10;;;2.70;;
11685;SDS011;5899;51.282;6.094;2022-08-30T14:35:00;3.20;;;2.40;;
11685;SDS011;5899;51.282;6.094;2022-08-30T14:37:26;7.65;;;2.97;;
11685;SDS011;5899;51.282;6.094;2022-08-30T14:39:53;5.85;;;2.88;;
11685;SDS011;5899;51.282;6.094;2022-08-30T14:42:30;3.47;;;2.63;;
11685;SDS011;5899;51.282;6.094;2022-08-30T14:45:05;5.60;;;2.85;;
11685;SDS011;5899;51.282;6.094;2022-08-30T14:47:34;5.32;;;2.97;;
11685;SDS011;5899;51.282;6.094;2022-08-30T14:50:07;4.90;;;2.45;;
11685;SDS011;5899;51.282;6.094;2022-08-30T14:52:52;4.70;;;2.80;;
11685;SDS011;5899;51.282;6.094;2022-08-30T14:55:38;3.17;;;2.40;;
11685;SDS011;5899;51.282;6.094;2022-08-30T14:58:15;6.60;;;2.53;;
11685;SDS011;5899;51.282;6.094;2022-08-30T15:00:51;5.55;;;2.70;;
11685;SDS011;5899;51.282;6.094;2022-08-30T15:03:19;4.15;;;2.75;;
11685;SDS011;5899;51.282;6.094;2022-08-30T15:05:49;5.53;;;2.85;;
11685;SDS011;5899;51.282;6.094;2022-08-30T15:08:17;3.08;;;2.75;;
11685;SDS011;5899;51.282;6.094;2022-08-30T15:13:44;3.85;;;2.58;;
11685;SDS011;5899;51.282;6.094;2022-08-30T15:16:13;2.42;;;2.20;;
11685;SDS011;5899;51.282;6.094;2022-08-30T15:18:42;4.13;;;2.30;;
11685;SDS011;5899;51.282;6.094;2022-08-30T15:21:20;4.32;;;2.40;;
11685;SDS011;5899;51.282;6.094;2022-08-30T15:23:47;3.65;;;2.28;;
11685;SDS011;5899;51.282;6.094;2022-08-30T15:26:23;4.60;;;2.58;;
11685;SDS011;5899;51.282;6.094;2022-08-30T15:31:52;3.40;;;2.40;;
11685;SDS011;5899;51.282;6.094;2022-08-30T15:34:44;3.80;;;2.45;;
11685;SDS011;5899;51.282;6.094;2022-08-30T15:37:29;2.65;;;2.45;;
11685;SDS011;5899;51.282;6.094;2022-08-30T15:40:10;3.83;;;2.90;;
11685;SDS011;5899;51.282;6.094;2022-08-30T15:42:44;3.47;;;2.72;;
11685;SDS011;5899;51.282;6.094;2022-08-30T15:46:06;5.63;;;2.97;;
11685;SDS011;5899;51.282;6.094;2022-08-30T15:51:59;5.03;;;2.53;;
11685;SDS011;5899;51.282;6.094;2022-08-30T15:54:39;3.30;;;2.28;;
11685;SDS011;5899;51.282;6.094;2022-08-30T15:57:18;4.63;;;2.40;;
11685;SDS011;5899;51.282;6.094;2022-08-30T16:00:12;2.50;;;2.30;;
11685;SDS011;5899;51.282;6.094;2022-08-30T16:03:07;6.88;;;2.55;;
11685;SDS011;5899;51.282;6.094;2022-08-30T16:05:53;4.18;;;2.05;;
11685;SDS011;5899;51.282;6.094;2022-08-30T16:17:48;4.32;;;2.30;;
11685;SDS011;5899;51.282;6.094;2022-08-30T16:20:56;2.55;;;2.13;;
11685;SDS011;5899;51.282;6.094;2022-08-30T16:26:56;4.82;;;2.50;;
11685;SDS011;5899;51.282;6.094;2022-08-30T16:39:18;4.57;;;2.35;;
11685;SDS011;5899;51.282;6.094;2022-08-30T16:41:59;4.40;;;2.15;;
11685;SDS011;5899;51.282;6.094;2022-08-30T16:44:47;5.00;;;2.20;;
11685;SDS011;5899;51.282;6.094;2022-08-30T16:47:26;3.80;;;2.20;;
11685;SDS011;5899;51.282;6.094;2022-08-30T16:53:17;3.95;;;2.25;;
11685;SDS011;5899;51.282;6.094;2022-08-30T16:56:24;5.70;;;2.58;;
11685;SDS011;5899;51.282;6.094;2022-08-30T16:59:02;5.78;;;2.45;;
11685;SDS011;5899;51.282;6.094;2022-08-30T17:01:49;3.70;;;2.15;;
11685;SDS011;5899;51.282;6.094;2022-08-30T17:04:37;3.22;;;1.60;;
11685;SDS011;5899;51.282;6.094;2022-08-30T17:19:23;3.38;;;1.85;;
11685;SDS011;5899;51.282;6.094;2022-08-30T17:22:43;4.13;;;2.00;;
11685;SDS011;5899;51.282;6.094;2022-08-30T17:31:11;2.15;;;1.92;;
11685;SDS011;5899;51.282;6.094;2022-08-30T17:33:56;4.18;;;2.03;;
11685;SDS011;5899;51.282;6.094;2022-08-30T17:42:31;3.15;;;2.00;;
11685;SDS011;5899;51.282;6.094;2022-08-30T17:45:36;3.72;;;2.10;;
11685;SDS011;5899;51.282;6.094;2022-08-30T17:48:31;5.32;;;1.83;;
11685;SDS011;5899;51.282;6.094;2022-08-30T17:54:10;2.33;;;1.80;;
11685;SDS011;5899;51.282;6.094;2022-08-30T17:56:48;4.45;;;2.17;;
11685;SDS011;5899;51.282;6.094;2022-08-30T18:02:46;3.38;;;2.10;;
11685;SDS011;5899;51.282;6.094;2022-08-30T18:05:26;4.13;;;2.13;;
11685;SDS011;5899;51.282;6.094;2022-08-30T18:08:15;3.75;;;2.20;;
11685;SDS011;5899;51.282;6.094;2022-08-30T18:10:51;4.10;;;2.22;;
11685;SDS011;5899;51.282;6.094;2022-08-30T18:13:46;4.80;;;2.42;;
11685;SDS011;5899;51.282;6.094;2022-08-30T18:16:27;4.93;;;2.20;;
11685;SDS011;5899;51.282;6.094;2022-08-30T18:19:03;3.05;;;1.95;;
11685;SDS011;5899;51.282;6.094;2022-08-30T18:24:54;4.18;;;2.00;;
11685;SDS011;5899;51.282;6.094;2022-08-30T18:27:42;4.03;;;1.80;;
11685;SDS011;5899;51.282;6.094;2022-08-30T18:30:20;4.93;;;2.22;;
11685;SDS011;5899;51.282;6.094;2022-08-30T18:33:02;4.97;;;2.08;;
